createdAt,value
2022-08-25T20:06:41.791Z,24.18
2022-08-25T20:07:41.776Z,24.15
2022-08-25T20:08:41.719Z,24.12
2022-08-25T20:09:41.720Z,24.09
2022-08-25T20:10:42.177Z,24.09
2022-08-25T20:11:41.702Z,24.08
2022-08-25T20:12:41.688Z,24.06
2022-08-25T20:13:41.671Z,24.06
2022-08-25T20:14:41.653Z,24.05
2022-08-25T20:15:41.731Z,24.06
2022-08-25T20:16:41.629Z,24.02
2022-08-25T20:17:41.793Z,24.00
2022-08-25T20:18:41.602Z,24.00
2022-08-25T20:19:41.678Z,23.95
2022-08-25T20:20:41.592Z,23.95
2022-08-25T20:21:41.554Z,23.93
2022-08-25T20:22:41.602Z,23.91
2022-08-25T20:23:41.567Z,23.87
2022-08-25T20:24:41.535Z,23.85
2022-08-25T20:25:41.557Z,23.84
2022-08-25T20:26:43.061Z,23.83
2022-08-25T20:27:41.493Z,23.80
2022-08-25T20:28:42.311Z,23.84
2022-08-25T20:29:41.468Z,23.84
2022-08-25T20:30:41.534Z,23.85
2022-08-25T20:31:41.454Z,23.88
2022-08-25T20:32:41.431Z,23.91
2022-08-25T20:33:41.398Z,23.95
2022-08-25T20:34:41.398Z,23.98
2022-08-25T20:35:41.600Z,23.95
2022-08-25T20:36:50.104Z,24.00
2022-08-25T20:37:42.351Z,23.98
2022-08-25T20:38:41.334Z,23.98
2022-08-25T20:39:41.344Z,24.00
2022-08-25T20:40:41.347Z,23.97
2022-08-25T20:41:41.302Z,23.95
2022-08-25T20:42:41.326Z,23.94
2022-08-25T20:43:41.260Z,23.93
2022-08-25T20:44:42.172Z,23.91
2022-08-25T20:45:41.300Z,23.90
2022-08-25T20:46:41.254Z,23.85
2022-08-25T20:47:41.225Z,23.83
2022-08-25T20:48:41.208Z,23.80
2022-08-25T20:49:41.193Z,23.75
2022-08-25T20:50:41.168Z,23.69
2022-08-25T20:51:41.155Z,23.66
2022-08-25T20:52:42.575Z,23.61
2022-08-25T20:53:41.129Z,23.58
2022-08-25T20:54:41.102Z,23.54
2022-08-25T20:55:42.281Z,23.54
2022-08-25T20:56:41.101Z,23.53
2022-08-25T20:57:41.064Z,23.48
2022-08-25T20:58:41.072Z,23.40
2022-08-25T20:59:41.036Z,23.40
2022-08-25T21:00:41.072Z,23.36
2022-08-25T21:01:41.042Z,23.33
2022-08-25T21:02:41.051Z,23.33
2022-08-25T21:03:41.000Z,23.32
2022-08-25T21:04:48.913Z,23.27
2022-08-25T21:05:41.968Z,23.23
2022-08-25T21:06:40.955Z,23.23
2022-08-25T21:07:40.926Z,23.22
2022-08-25T21:08:40.951Z,23.20
2022-08-25T21:09:41.920Z,23.13
2022-08-25T21:10:40.929Z,23.09
2022-08-25T21:11:40.870Z,23.09
2022-08-25T21:12:40.866Z,23.02
2022-08-25T21:13:40.844Z,23.02
2022-08-25T21:14:40.847Z,23.01
2022-08-25T21:15:40.819Z,22.97
2022-08-25T21:16:40.974Z,22.97
2022-08-25T21:17:40.796Z,22.94
2022-08-25T21:18:40.780Z,22.91
2022-08-25T21:19:42.054Z,22.90
2022-08-25T21:20:40.791Z,22.88
2022-08-25T21:21:40.747Z,22.83
2022-08-25T21:22:40.750Z,22.83
2022-08-25T21:23:40.711Z,22.82
2022-08-25T21:24:40.698Z,22.80
2022-08-25T21:25:40.694Z,22.77
2022-08-25T21:26:48.732Z,22.75
2022-08-25T21:27:41.664Z,22.75
2022-08-25T21:28:40.675Z,22.73
2022-08-25T21:29:44.535Z,22.72
2022-08-25T21:30:41.689Z,22.70
2022-08-25T21:31:40.613Z,22.68
2022-08-25T21:32:40.603Z,22.68
2022-08-25T21:33:41.576Z,22.68
2022-08-25T21:34:40.577Z,22.65
2022-08-25T21:35:40.589Z,22.65
2022-08-25T21:36:40.541Z,22.61
2022-08-25T21:37:40.527Z,22.60
2022-08-25T21:38:40.606Z,22.58
2022-08-25T21:39:40.509Z,22.57
2022-08-25T21:40:40.490Z,22.52
2022-08-25T21:41:40.521Z,22.49
2022-08-25T21:42:40.496Z,22.49
2022-08-25T21:43:40.471Z,22.52
2022-08-25T21:44:40.485Z,22.49
2022-08-25T21:45:43.247Z,22.46
2022-08-25T21:46:41.444Z,22.45
2022-08-25T21:47:40.763Z,22.46
2022-08-25T21:48:40.394Z,22.42
2022-08-25T21:49:40.360Z,22.40
2022-08-25T21:50:40.426Z,22.37
2022-08-25T21:51:40.662Z,22.37
2022-08-25T21:52:41.237Z,22.30
2022-08-25T21:53:40.318Z,22.28
2022-08-25T21:54:40.315Z,22.27
2022-08-25T21:55:41.895Z,22.25
2022-08-25T21:56:40.286Z,22.24
2022-08-25T21:57:40.257Z,22.20
2022-08-25T21:58:40.259Z,22.20
2022-08-25T21:59:33.015Z,22.21
2022-08-25T22:00:32.973Z,22.14
2022-08-25T22:01:33.021Z,22.12
2022-08-25T22:02:32.979Z,22.09
2022-08-25T22:03:33.011Z,22.06
2022-08-25T22:04:32.953Z,22.05
2022-08-25T22:05:32.921Z,22.00
2022-08-25T22:06:32.924Z,21.99
2022-08-25T22:07:34.437Z,21.98
2022-08-25T22:08:33.882Z,21.96
2022-08-25T22:09:32.865Z,21.96
2022-08-25T22:10:32.851Z,21.92
2022-08-25T22:11:36.057Z,21.92
2022-08-25T22:12:32.818Z,21.90
2022-08-25T22:13:32.803Z,21.88
2022-08-25T22:14:32.792Z,21.84
2022-08-25T22:15:32.775Z,21.82
2022-08-25T22:16:32.831Z,21.84
2022-08-25T22:17:32.764Z,21.83
2022-08-25T22:18:32.737Z,21.80
2022-08-25T22:19:33.153Z,21.79
2022-08-25T22:20:32.717Z,21.77
2022-08-25T22:21:32.704Z,21.75
2022-08-25T22:22:32.707Z,21.74
2022-08-25T22:23:32.669Z,21.72
2022-08-25T22:24:33.677Z,21.69
2022-08-25T22:25:32.641Z,21.68
2022-08-25T22:26:32.679Z,21.67
2022-08-25T22:27:32.617Z,21.68
2022-08-25T22:28:32.621Z,21.65
2022-08-25T22:29:32.644Z,21.64
2022-08-25T22:30:32.606Z,21.64
2022-08-25T22:31:32.551Z,21.62
2022-08-25T22:32:32.542Z,21.61
2022-08-25T22:33:32.534Z,21.59
2022-08-25T22:34:32.807Z,21.59
2022-08-25T22:35:32.527Z,21.59
2022-08-25T22:36:32.544Z,21.61
2022-08-25T22:37:32.477Z,21.59
2022-08-25T22:38:32.470Z,21.58
2022-08-25T22:39:32.487Z,21.53
2022-08-25T22:40:32.504Z,21.52
2022-08-25T22:41:32.415Z,21.52
2022-08-25T22:42:32.463Z,21.46
2022-08-25T22:43:32.424Z,21.47
2022-08-25T22:44:32.376Z,21.46
2022-08-25T22:45:32.468Z,21.46
2022-08-25T22:46:32.357Z,21.46
2022-08-25T22:47:32.334Z,21.43
2022-08-25T22:48:32.338Z,21.42
2022-08-25T22:49:32.315Z,21.42
2022-08-25T22:50:32.282Z,21.38
2022-08-25T22:51:32.360Z,21.38
2022-08-25T22:52:33.586Z,21.40
2022-08-25T22:53:32.270Z,21.40
2022-08-25T22:54:32.269Z,21.46
2022-08-25T22:55:32.243Z,21.44
2022-08-25T22:56:32.247Z,21.44
2022-08-25T22:57:32.272Z,21.44
2022-08-25T22:58:32.193Z,21.42
2022-08-25T22:59:32.182Z,21.40
2022-08-25T23:00:32.172Z,21.40
2022-08-25T23:01:32.153Z,21.40
2022-08-25T23:02:32.158Z,21.43
2022-08-25T23:03:32.178Z,21.42
2022-08-25T23:04:32.155Z,21.40
2022-08-25T23:05:32.131Z,21.40
2022-08-25T23:06:32.121Z,21.42
2022-08-25T23:07:32.073Z,21.40
2022-08-25T23:08:39.293Z,21.42
2022-08-25T23:09:33.087Z,21.42
2022-08-25T23:10:32.046Z,21.38
2022-08-25T23:11:32.046Z,21.35
2022-08-25T23:12:32.058Z,21.35
2022-08-25T23:13:33.897Z,21.34
2022-08-25T23:14:31.995Z,21.34
2022-08-25T23:15:31.980Z,21.32
2022-08-25T23:16:32.009Z,21.28
2022-08-25T23:17:31.951Z,21.29
2022-08-25T23:18:31.939Z,21.25
2022-08-25T23:19:31.943Z,21.24
2022-08-25T23:20:31.901Z,21.24
2022-08-25T23:21:38.222Z,21.21
2022-08-25T23:22:32.886Z,21.22
2022-08-25T23:23:31.862Z,21.21
2022-08-25T23:24:31.849Z,21.21
2022-08-25T23:25:31.836Z,21.22
2022-08-25T23:26:31.823Z,21.22
2022-08-25T23:27:31.820Z,21.24
2022-08-25T23:28:31.794Z,21.19
2022-08-25T23:29:31.788Z,21.21
2022-08-25T23:30:31.785Z,21.19
2022-08-25T23:31:31.778Z,21.21
2022-08-25T23:32:31.737Z,21.22
2022-08-25T23:33:31.720Z,21.24
2022-08-25T23:34:31.737Z,21.21
2022-08-25T23:35:31.703Z,21.22
2022-08-25T23:36:31.707Z,21.25
2022-08-25T23:37:31.681Z,21.29
2022-08-25T23:38:31.686Z,21.32
2022-08-25T23:39:31.660Z,21.37
2022-08-25T23:40:31.702Z,21.42
2022-08-25T23:41:31.610Z,21.40
2022-08-25T23:42:31.620Z,21.37
2022-08-25T23:43:31.589Z,21.35
2022-08-25T23:44:31.619Z,21.34
2022-08-25T23:45:31.650Z,21.42
2022-08-25T23:46:31.553Z,21.53
2022-08-25T23:47:31.554Z,21.56
2022-08-25T23:48:31.524Z,21.54
2022-08-25T23:49:31.503Z,21.58
2022-08-25T23:50:31.551Z,21.61
2022-08-25T23:51:31.479Z,21.61
2022-08-25T23:52:31.503Z,21.67
2022-08-25T23:53:31.454Z,21.67
2022-08-25T23:54:31.669Z,21.68
2022-08-25T23:55:33.621Z,21.71
2022-08-25T23:56:31.417Z,21.64
2022-08-25T23:57:31.423Z,21.56
2022-08-25T23:58:31.717Z,21.50
2022-08-25T23:59:31.368Z,21.46
